createdAt,value
2023-04-02T00:00:11.464Z,16.90
2023-04-02T00:02:55.318Z,17.35
2023-04-02T00:05:34.786Z,15.55
2023-04-02T00:08:10.545Z,17.05
2023-04-02T00:10:49.884Z,18.00
2023-04-02T00:13:17.495Z,17.02
2023-04-02T00:15:49.671Z,17.05
2023-04-02T00:18:20.353Z,18.83
2023-04-02T00:21:03.983Z,16.77
2023-04-02T00:23:31.707Z,18.10
2023-04-02T00:25:59.620Z,16.65
2023-04-02T00:28:27.728Z,15.77
2023-04-02T00:31:00.036Z,16.95
2023-04-02T00:33:31.821Z,16.45
2023-04-02T00:36:00.494Z,16.35
2023-04-02T00:38:32.209Z,16.55
2023-04-02T00:41:03.367Z,15.57
2023-04-02T00:43:36.055Z,16.23
2023-04-02T00:46:14.429Z,15.93
2023-04-02T00:49:14.647Z,15.07
2023-04-02T00:51:49.686Z,15.77
2023-04-02T00:54:22.840Z,16.40
2023-04-02T00:56:55.179Z,17.17
2023-04-02T00:59:35.992Z,16.50
2023-04-02T01:02:17.573Z,14.95
2023-04-02T01:04:55.021Z,14.95
2023-04-02T01:07:55.418Z,15.48
2023-04-02T01:10:29.295Z,14.95
2023-04-02T01:13:05.971Z,15.65
2023-04-02T01:15:40.696Z,16.10
2023-04-02T01:18:18.778Z,16.38
2023-04-02T01:20:59.913Z,15.23
2023-04-02T01:23:34.905Z,16.70
2023-04-02T01:26:27.682Z,15.75
2023-04-02T01:29:09.435Z,16.27
2023-04-02T01:31:39.070Z,16.58
2023-04-02T01:34:12.499Z,16.17
2023-04-02T01:36:59.166Z,17.48
2023-04-02T01:39:40.227Z,16.92
2023-04-02T01:42:27.367Z,18.05
2023-04-02T01:45:03.195Z,17.15
2023-04-02T01:47:33.425Z,17.05
2023-04-02T01:50:24.701Z,15.60
2023-04-02T01:52:57.249Z,17.08
2023-04-02T01:55:31.472Z,15.52
2023-04-02T01:58:02.083Z,16.05
2023-04-02T02:00:31.303Z,16.20
2023-04-02T02:03:02.587Z,15.63
2023-04-02T02:05:30.994Z,16.73
2023-04-02T02:08:01.521Z,17.27
2023-04-02T02:10:36.677Z,17.77
2023-04-02T02:13:04.686Z,17.85
2023-04-02T02:15:34.528Z,17.38
2023-04-02T02:18:07.256Z,15.95
2023-04-02T02:20:36.535Z,17.40
2023-04-02T02:23:05.578Z,17.38
2023-04-02T02:25:37.607Z,18.20
2023-04-02T02:28:14.215Z,17.08
2023-04-02T02:30:53.981Z,17.83
2023-04-02T02:33:34.463Z,17.63
2023-04-02T02:36:41.703Z,18.45
2023-04-02T02:39:22.322Z,17.55
2023-04-02T02:41:56.295Z,19.42
2023-04-02T02:44:43.674Z,20.20
2023-04-02T02:47:16.780Z,19.92
2023-04-02T02:50:10.548Z,19.87
2023-04-02T02:52:39.643Z,19.02
2023-04-02T02:55:17.556Z,19.27
2023-04-02T02:58:27.589Z,19.63
2023-04-02T03:01:09.535Z,19.20
2023-04-02T03:03:40.780Z,18.75
2023-04-02T03:06:14.313Z,20.35
2023-04-02T03:08:57.989Z,18.05
2023-04-02T03:11:57.319Z,19.05
2023-04-02T03:14:38.320Z,19.00
2023-04-02T03:17:17.998Z,18.73
2023-04-02T03:19:58.457Z,18.92
2023-04-02T03:22:36.067Z,17.77
2023-04-02T03:25:35.048Z,17.27
2023-04-02T03:28:06.382Z,17.83
2023-04-02T03:30:50.047Z,17.20
2023-04-02T03:33:35.956Z,16.63
2023-04-02T03:36:24.202Z,18.05
2023-04-02T03:39:14.737Z,18.08
2023-04-02T03:42:14.373Z,18.67
2023-04-02T03:44:52.576Z,18.17
2023-04-02T03:47:20.902Z,17.85
2023-04-02T03:50:11.846Z,17.65
2023-04-02T03:52:41.069Z,18.02
2023-04-02T03:55:17.671Z,17.60
2023-04-02T03:58:04.140Z,17.33
2023-04-02T04:00:42.559Z,18.02
2023-04-02T04:03:18.380Z,18.70
2023-04-02T04:05:52.353Z,18.75
2023-04-02T04:08:26.851Z,19.45
2023-04-02T04:10:58.558Z,19.20
2023-04-02T04:13:37.465Z,17.30
2023-04-02T04:16:11.940Z,19.85
2023-04-02T04:18:57.615Z,19.50
2023-04-02T04:21:31.442Z,19.00
2023-04-02T04:24:16.600Z,19.60
2023-04-02T04:26:53.676Z,19.17
2023-04-02T04:29:49.313Z,18.00
2023-04-02T04:32:27.618Z,16.92
2023-04-02T04:35:17.678Z,17.33
2023-04-02T04:37:52.929Z,17.80
2023-04-02T04:40:31.370Z,19.17
2023-04-02T04:43:16.754Z,17.27
2023-04-02T04:45:51.885Z,17.70
2023-04-02T04:48:49.898Z,16.90
2023-04-02T04:51:24.796Z,17.48
2023-04-02T04:53:55.952Z,15.68
2023-04-02T04:56:30.563Z,17.23
2023-04-02T04:59:23.602Z,18.17
2023-04-02T05:02:17.780Z,16.10
2023-04-02T05:04:51.019Z,18.92
2023-04-02T05:07:33.082Z,18.95
2023-04-02T05:10:25.025Z,18.60
2023-04-02T05:13:21.850Z,17.17
2023-04-02T05:16:16.933Z,19.42
2023-04-02T05:19:01.537Z,16.08
2023-04-02T05:21:52.643Z,16.63
2023-04-02T05:25:07.550Z,13.35
2023-04-02T05:28:18.512Z,12.07
2023-04-02T05:30:56.589Z,13.20
2023-04-02T05:33:31.340Z,12.70
2023-04-02T05:36:09.742Z,12.90
2023-04-02T05:38:48.969Z,14.57
2023-04-02T05:41:38.416Z,13.55
2023-04-02T05:44:14.996Z,13.95
2023-04-02T05:46:55.737Z,15.43
2023-04-02T05:49:39.233Z,16.15
2023-04-02T05:52:24.117Z,15.57
2023-04-02T05:55:07.048Z,16.95
2023-04-02T05:57:46.766Z,14.65
2023-04-02T06:00:25.572Z,19.30
2023-04-02T06:03:14.199Z,17.63
2023-04-02T06:05:45.665Z,18.63
2023-04-02T06:08:22.915Z,18.05
2023-04-02T06:11:00.452Z,18.13
2023-04-02T06:13:29.508Z,17.92
2023-04-02T06:16:07.694Z,19.10
2023-04-02T06:18:37.389Z,18.10
2023-04-02T06:24:08.899Z,19.40
2023-04-02T06:26:45.029Z,18.30
2023-04-02T06:29:20.133Z,18.90
2023-04-02T06:31:57.566Z,19.50
2023-04-02T06:34:29.994Z,18.58
2023-04-02T06:37:22.675Z,19.92
2023-04-02T06:39:57.677Z,18.75
2023-04-02T06:42:34.856Z,19.23
2023-04-02T06:45:35.553Z,18.08
2023-04-02T06:48:37.369Z,17.75
2023-04-02T06:51:11.927Z,16.65
2023-04-02T06:53:47.202Z,18.27
2023-04-02T06:56:44.710Z,17.60
2023-04-02T06:59:18.995Z,18.38
2023-04-02T07:01:49.811Z,18.52
2023-04-02T07:04:21.382Z,16.70
2023-04-02T07:06:54.482Z,18.67
2023-04-02T07:12:15.926Z,15.82
2023-04-02T07:14:48.091Z,16.27
2023-04-02T07:17:21.061Z,18.65
2023-04-02T07:19:55.569Z,16.88
2023-04-02T07:22:26.045Z,17.63
2023-04-02T07:25:02.584Z,18.17
2023-04-02T07:27:31.201Z,17.55
2023-04-02T07:29:59.053Z,18.13
2023-04-02T07:32:26.742Z,18.50
2023-04-02T07:34:54.600Z,18.30
2023-04-02T07:40:58.481Z,16.35
2023-04-02T07:43:26.701Z,16.70
2023-04-02T07:45:54.557Z,17.83
2023-04-02T07:48:22.444Z,15.40
2023-04-02T07:50:53.276Z,15.93
2023-04-02T07:53:30.221Z,16.10
2023-04-02T07:56:03.139Z,15.95
2023-04-02T07:58:37.464Z,17.27
2023-04-02T08:01:05.914Z,16.20
2023-04-02T08:03:33.891Z,15.43
2023-04-02T08:06:01.823Z,16.42
2023-04-02T08:08:29.722Z,14.13
2023-04-02T08:10:57.608Z,16.63
2023-04-02T08:13:27.435Z,15.43
2023-04-02T08:15:59.148Z,16.20
2023-04-02T08:18:27.246Z,16.15
2023-04-02T08:20:54.990Z,15.63
2023-04-02T08:23:24.005Z,14.40
2023-04-02T08:25:52.673Z,15.35
2023-04-02T08:28:38.075Z,16.00
2023-04-02T08:33:53.612Z,14.27
2023-04-02T08:36:27.628Z,11.13
2023-04-02T08:38:55.219Z,7.20
2023-04-02T08:41:27.999Z,7.05
2023-04-02T08:44:21.925Z,8.73
2023-04-02T08:46:57.401Z,10.50
2023-04-02T08:49:43.280Z,9.65
2023-04-02T08:52:28.809Z,9.13
2023-04-02T08:54:58.108Z,10.40
2023-04-02T08:57:41.991Z,11.20
2023-04-02T09:00:15.967Z,10.50
2023-04-02T09:02:52.115Z,10.90
2023-04-02T09:05:31.600Z,10.40
2023-04-02T09:08:02.351Z,9.40
2023-04-02T09:10:42.679Z,7.07
2023-04-02T09:13:22.805Z,6.13
2023-04-02T09:15:56.532Z,7.15
2023-04-02T09:18:24.463Z,6.72
2023-04-02T09:20:52.070Z,8.32
2023-04-02T09:23:26.160Z,8.18
2023-04-02T09:26:03.584Z,8.05
2023-04-02T09:28:32.480Z,6.97
2023-04-02T09:31:19.814Z,7.57
2023-04-02T09:33:51.837Z,6.28
2023-04-02T09:36:34.457Z,7.43
2023-04-02T09:39:19.011Z,6.65
2023-04-02T09:41:55.810Z,6.38
2023-04-02T09:44:33.023Z,6.55
2023-04-02T09:47:04.104Z,7.30
2023-04-02T09:49:36.294Z,7.38
2023-04-02T09:52:26.333Z,6.07
2023-04-02T09:55:16.439Z,7.03
2023-04-02T09:57:44.505Z,7.93
2023-04-02T10:00:30.663Z,5.68
2023-04-02T10:03:25.743Z,6.47
2023-04-02T10:06:13.037Z,5.25
2023-04-02T10:08:43.489Z,6.72
2023-04-02T10:11:28.849Z,6.07
2023-04-02T10:14:15.266Z,6.97
2023-04-02T10:16:52.298Z,6.88
2023-04-02T10:19:42.773Z,6.40
2023-04-02T10:22:17.348Z,8.98
2023-04-02T10:24:45.641Z,7.72
2023-04-02T10:27:22.684Z,8.95
2023-04-02T10:30:11.687Z,10.63
2023-04-02T10:33:03.294Z,10.77
2023-04-02T10:35:49.213Z,10.18
2023-04-02T10:38:42.192Z,10.75
2023-04-02T10:41:25.178Z,10.65
2023-04-02T10:44:26.738Z,11.82
2023-04-02T10:47:17.690Z,10.55
2023-04-02T10:50:03.154Z,11.20
2023-04-02T10:52:39.978Z,10.43
2023-04-02T10:55:19.142Z,10.95
2023-04-02T10:57:47.553Z,9.98
2023-04-02T11:00:28.008Z,11.27
2023-04-02T11:03:09.476Z,9.35
2023-04-02T11:05:57.195Z,8.73
2023-04-02T11:08:27.438Z,9.50
2023-04-02T11:11:03.296Z,8.80
2023-04-02T11:13:55.617Z,10.15
2023-04-02T11:16:24.240Z,8.52
2023-04-02T11:19:17.437Z,8.23
2023-04-02T11:22:06.776Z,9.43
2023-04-02T11:24:43.570Z,8.15
2023-04-02T11:27:11.352Z,9.43
2023-04-02T11:29:45.431Z,9.10
2023-04-02T11:32:22.320Z,8.45
2023-04-02T11:35:03.024Z,7.95
2023-04-02T11:37:45.329Z,7.80
2023-04-02T11:40:15.663Z,6.90
2023-04-02T11:42:51.903Z,7.07
2023-04-02T11:45:28.630Z,2.00
2023-04-02T11:48:04.430Z,0.43
2023-04-02T11:50:33.944Z,1.92
2023-04-02T11:53:19.453Z,1.60
2023-04-02T11:56:07.259Z,1.17
2023-04-02T11:58:49.228Z,1.27
2023-04-02T12:01:30.262Z,1.00
2023-04-02T12:04:35.056Z,0.60
2023-04-02T12:07:14.119Z,0.40
2023-04-02T12:09:53.872Z,0.30
2023-04-02T12:12:24.717Z,0.90
2023-04-02T12:14:55.951Z,0.65
2023-04-02T12:17:36.372Z,0.60
2023-04-02T12:20:23.090Z,0.57
2023-04-02T12:22:53.691Z,0.50
2023-04-02T12:25:22.130Z,0.40
2023-04-02T12:28:15.816Z,0.88
2023-04-02T12:30:45.480Z,0.80
2023-04-02T12:33:22.505Z,0.80
2023-04-02T12:35:55.160Z,0.52
2023-04-02T12:38:34.333Z,0.50
2023-04-02T12:41:06.551Z,0.65
2023-04-02T12:43:39.742Z,1.20
2023-04-02T12:46:09.195Z,0.73
2023-04-02T12:48:40.601Z,0.70
2023-04-02T12:51:08.524Z,0.60
2023-04-02T12:53:40.260Z,0.65
2023-04-02T12:56:19.785Z,0.80
2023-04-02T12:59:00.225Z,0.70
2023-04-02T13:01:32.260Z,0.50
2023-04-02T13:04:03.757Z,0.30
2023-04-02T13:06:32.442Z,0.10
2023-04-02T13:09:28.457Z,0.52
2023-04-02T13:11:59.573Z,0.20
2023-04-02T13:14:28.202Z,0.25
2023-04-02T13:16:56.564Z,0.20
2023-04-02T13:19:27.729Z,0.15
2023-04-02T13:21:57.348Z,0.30
2023-04-02T13:24:30.605Z,0.10
2023-04-02T13:27:01.473Z,0.20
2023-04-02T13:29:42.059Z,0.15
2023-04-02T13:32:14.947Z,0.30
2023-04-02T13:34:47.044Z,0.20
2023-04-02T13:37:24.763Z,0.30
2023-04-02T13:39:53.895Z,0.38
2023-04-02T13:42:22.456Z,0.10
2023-04-02T13:44:50.381Z,0.28
2023-04-02T13:47:18.451Z,0.30
2023-04-02T13:49:46.212Z,0.28
2023-04-02T13:52:20.854Z,0.30
2023-04-02T13:54:58.631Z,0.38
2023-04-02T13:57:28.995Z,0.40
2023-04-02T13:59:57.485Z,0.10
2023-04-02T14:02:27.222Z,0.13
2023-04-02T14:05:17.600Z,0.10
2023-04-02T14:07:55.443Z,0.20
2023-04-02T14:10:54.570Z,0.25
2023-04-02T14:13:47.554Z,0.52
2023-04-02T14:16:26.634Z,0.60
2023-04-02T14:19:14.905Z,0.22
2023-04-02T14:22:07.305Z,0.88
2023-04-02T14:24:47.261Z,0.57
2023-04-02T14:27:33.752Z,0.30
2023-04-02T14:30:36.970Z,0.60
2023-04-02T14:33:09.966Z,0.70
2023-04-02T14:35:47.698Z,0.20
2023-04-02T14:38:56.835Z,1.13
2023-04-02T14:41:48.453Z,0.45
2023-04-02T14:44:33.016Z,0.28
2023-04-02T14:47:43.604Z,0.55
2023-04-02T14:50:28.085Z,1.55
2023-04-02T14:53:02.923Z,0.35
2023-04-02T14:55:43.172Z,0.50
2023-04-02T14:58:37.441Z,0.80
2023-04-02T15:01:14.237Z,1.85
2023-04-02T15:03:47.880Z,0.50
2023-04-02T15:06:23.763Z,0.50
2023-04-02T15:09:09.324Z,0.50
2023-04-02T15:11:55.353Z,0.40
2023-04-02T15:14:41.249Z,0.50
2023-04-02T15:17:12.900Z,0.40
2023-04-02T15:19:44.563Z,0.70
2023-04-02T15:22:18.385Z,1.02
2023-04-02T15:25:14.099Z,0.50
2023-04-02T15:27:56.171Z,0.50
2023-04-02T15:30:37.155Z,0.52
2023-04-02T15:33:41.341Z,0.57
2023-04-02T15:36:31.674Z,0.40
2023-04-02T15:39:08.224Z,0.38
2023-04-02T15:41:43.089Z,0.30
2023-04-02T15:44:17.594Z,0.50
2023-04-02T15:47:03.246Z,0.60
2023-04-02T15:49:46.884Z,0.40
2023-04-02T15:52:35.530Z,1.35
2023-04-02T15:55:38.536Z,0.77
2023-04-02T15:58:21.555Z,0.85
2023-04-02T16:01:23.899Z,0.70
2023-04-02T16:04:18.040Z,0.60
2023-04-02T16:07:14.994Z,0.40
2023-04-02T16:10:01.565Z,0.60
2023-04-02T16:12:29.569Z,0.60
2023-04-02T16:15:11.463Z,0.90
2023-04-02T16:17:48.050Z,0.70
2023-04-02T16:20:28.835Z,0.77
2023-04-02T16:23:02.848Z,2.67
2023-04-02T16:25:51.007Z,0.80
2023-04-02T16:31:32.144Z,0.80
2023-04-02T16:34:25.552Z,0.45
2023-04-02T16:36:56.687Z,0.65
2023-04-02T16:39:37.675Z,0.90
2023-04-02T16:42:27.185Z,1.10
2023-04-02T16:45:19.439Z,1.10
2023-04-02T16:47:54.251Z,1.02
2023-04-02T16:50:34.350Z,0.80
2023-04-02T16:53:20.172Z,1.58
2023-04-02T16:56:04.201Z,1.05
2023-04-02T16:58:59.523Z,0.40
2023-04-02T17:01:52.309Z,0.43
2023-04-02T17:04:53.202Z,0.40
2023-04-02T17:07:44.623Z,0.70
2023-04-02T17:10:35.168Z,0.52
2023-04-02T17:13:35.808Z,0.57
2023-04-02T17:16:27.795Z,0.60
2023-04-02T17:19:01.608Z,0.63
2023-04-02T17:21:31.468Z,0.47
2023-04-02T17:24:21.723Z,0.50
2023-04-02T17:26:58.741Z,0.80
2023-04-02T17:29:42.736Z,0.70
2023-04-02T17:32:28.150Z,0.50
2023-04-02T17:34:57.749Z,0.50
2023-04-02T17:38:03.128Z,0.57
2023-04-02T17:40:54.928Z,0.73
2023-04-02T17:43:53.231Z,1.13
2023-04-02T17:46:47.195Z,0.88
2023-04-02T17:49:33.916Z,0.90
2023-04-02T17:52:24.721Z,0.90
2023-04-02T17:58:13.589Z,0.60
2023-04-02T18:00:44.813Z,1.75
2023-04-02T18:03:51.065Z,1.73
2023-04-02T18:06:37.826Z,4.00
2023-04-02T18:09:32.819Z,2.95
2023-04-02T18:12:04.201Z,3.70
2023-04-02T18:15:04.350Z,3.38
2023-04-02T18:17:54.270Z,4.43
2023-04-02T18:20:43.747Z,5.20
2023-04-02T18:23:24.584Z,6.18
2023-04-02T18:26:42.632Z,5.25
2023-04-02T18:29:37.555Z,5.85
2023-04-02T18:32:27.899Z,6.00
2023-04-02T18:35:15.300Z,5.57
2023-04-02T18:37:42.979Z,5.90
2023-04-02T18:40:35.726Z,7.70
2023-04-02T18:43:12.629Z,7.43
2023-04-02T18:46:05.442Z,6.75
2023-04-02T18:49:00.210Z,6.57
2023-04-02T18:51:40.046Z,6.65
2023-04-02T18:54:21.636Z,6.90
2023-04-02T18:56:49.424Z,6.43
2023-04-02T18:59:37.800Z,6.47
2023-04-02T19:02:40.658Z,5.88
2023-04-02T19:05:37.962Z,6.53
2023-04-02T19:08:55.288Z,6.55
2023-04-02T19:11:32.657Z,6.43
2023-04-02T19:14:21.508Z,7.05
2023-04-02T19:17:02.928Z,7.30
2023-04-02T19:19:54.092Z,8.77
2023-04-02T19:23:06.368Z,7.45
2023-04-02T19:26:04.794Z,10.85
2023-04-02T19:28:57.670Z,10.77
2023-04-02T19:31:38.523Z,9.27
2023-04-02T19:34:24.257Z,8.32
2023-04-02T19:37:12.042Z,8.25
2023-04-02T19:40:05.146Z,7.82
2023-04-02T19:42:50.938Z,7.82
2023-04-02T19:45:45.476Z,7.28
2023-04-02T19:48:43.112Z,7.93
2023-04-02T19:51:12.430Z,7.85
2023-04-02T19:53:45.774Z,8.10
2023-04-02T19:58:45.548Z,7.07
2023-04-02T20:01:19.409Z,6.50
2023-04-02T20:03:59.752Z,6.55
2023-04-02T20:06:30.777Z,6.25
2023-04-02T20:09:00.515Z,5.15
2023-04-02T20:11:28.930Z,4.80
2023-04-02T20:13:57.193Z,5.68
2023-04-02T20:16:27.563Z,4.78
2023-04-02T20:18:57.363Z,5.40
2023-04-02T20:21:28.276Z,4.57
2023-04-02T20:23:56.892Z,6.15
2023-04-02T20:26:33.054Z,4.82
2023-04-02T20:29:02.684Z,5.13
2023-04-02T20:31:38.333Z,4.45
2023-04-02T20:34:09.334Z,4.47
2023-04-02T20:36:40.046Z,4.03
2023-04-02T20:39:09.481Z,3.70
2023-04-02T20:41:39.731Z,3.83
2023-04-02T20:44:30.929Z,4.32
2023-04-02T20:47:03.979Z,3.53
2023-04-02T20:49:48.307Z,3.25
2023-04-02T20:52:20.272Z,2.92
2023-04-02T20:54:52.463Z,2.40
2023-04-02T20:57:30.985Z,4.25
2023-04-02T20:59:59.350Z,6.70
2023-04-02T21:02:29.691Z,4.28
2023-04-02T21:05:02.601Z,2.28
2023-04-02T21:07:30.639Z,2.92
2023-04-02T21:09:58.880Z,2.88
2023-04-02T21:12:27.796Z,2.22
2023-04-02T21:15:02.757Z,2.28
2023-04-02T21:17:36.589Z,2.47
2023-04-02T21:20:05.024Z,1.92
2023-04-02T21:22:32.953Z,2.00
2023-04-02T21:25:00.903Z,1.90
2023-04-02T21:27:28.564Z,1.50
2023-04-02T21:29:56.438Z,1.42
2023-04-02T21:32:24.207Z,1.55
2023-04-02T21:34:51.968Z,1.33
2023-04-02T21:37:22.177Z,1.27
2023-04-02T21:39:52.457Z,1.33
2023-04-02T21:42:20.191Z,1.88
2023-04-02T21:44:48.092Z,1.40
2023-04-02T21:47:16.020Z,2.20
2023-04-02T21:49:43.963Z,2.00
2023-04-02T21:52:12.319Z,1.67
2023-04-02T21:54:40.572Z,2.22
2023-04-02T21:57:08.765Z,1.80
2023-04-02T21:59:36.973Z,1.92
2023-04-02T22:02:05.161Z,1.73
2023-04-02T22:04:33.589Z,1.60
2023-04-02T22:07:01.480Z,1.67
2023-04-02T22:09:29.684Z,1.80
2023-04-02T22:11:59.674Z,1.63
2023-04-02T22:17:17.442Z,1.42
2023-04-02T22:19:45.446Z,1.80
2023-04-02T22:22:13.082Z,1.88
2023-04-02T22:24:40.879Z,1.85
2023-04-02T22:27:08.333Z,1.70
2023-04-02T22:29:36.092Z,1.75
2023-04-02T22:32:03.557Z,1.63
2023-04-02T22:34:31.170Z,1.60
2023-04-02T22:36:58.657Z,1.63
2023-04-02T22:39:26.437Z,1.80
2023-04-02T22:41:54.187Z,2.08
2023-04-02T22:44:21.777Z,2.28
2023-04-02T22:46:49.393Z,2.13
2023-04-02T22:49:19.577Z,2.38
2023-04-02T22:54:32.724Z,2.13
2023-04-02T22:57:00.587Z,2.58
2023-04-02T22:59:28.108Z,1.98
2023-04-02T23:01:55.740Z,2.05
2023-04-02T23:04:23.241Z,2.10
2023-04-02T23:06:51.558Z,2.00
2023-04-02T23:09:19.214Z,2.30
2023-04-02T23:11:46.816Z,2.13
2023-04-02T23:14:14.305Z,1.92
2023-04-02T23:16:41.820Z,1.60
2023-04-02T23:19:27.927Z,2.03
2023-04-02T23:22:13.944Z,2.10
2023-04-02T23:24:41.671Z,2.20
2023-04-02T23:27:09.184Z,2.55
2023-04-02T23:29:36.810Z,2.50
2023-04-02T23:32:07.118Z,1.98
2023-04-02T23:34:34.672Z,2.20
2023-04-02T23:37:02.146Z,2.45
2023-04-02T23:39:29.791Z,1.63
2023-04-02T23:41:59.048Z,2.17
2023-04-02T23:44:26.901Z,1.42
2023-04-02T23:46:54.654Z,1.50
2023-04-02T23:50:52.733Z,1.25
2023-04-02T23:53:27.355Z,1.38
2023-04-02T23:55:55.745Z,1.13
2023-04-02T23:58:23.318Z,1.20
